Time;durP1;ratioP1;P1;durP2;ratioP2;P2;SDS_P1;SDS_P2;PMS_P1;PMS_P2;Temp;Humidity;BMP_temperature;BMP_pressure;BME280_temperature;BME280_humidity;BME280_pressure;Samples;Min_cycle;Max_cycle;Signal;HPM_P1;HPM_P2
2023/09/04 00:00:18;;;;;;;;;;;;;;;;;;4980440;28;20137;-88
2023/09/04 00:02:44;;;;;;;;;;;;;;;;;;4969303;28;20050;-89
2023/09/04 00:05:10;;;;;;;;;;;;;;;;;;4976724;28;19918;-88
2023/09/04 00:07:36;;;;;;;;;;;;;;;;;;4978660;28;20004;-89
2023/09/04 00:10:03;;;;;;;;;;;;;;;;;;4973685;28;20001;-89
2023/09/04 00:12:29;;;;;;;;;;;;;;;;;;4989490;28;19924;-89
2023/09/04 00:14:55;;;;;;;;;;;;;;;;;;4969929;28;19917;-90
2023/09/04 00:17:21;;;;;;;;;;;;;;;;;;4972405;28;19922;-89
2023/09/04 00:19:47;;;;;;;;;;;;;;;;;;4963453;28;19910;-89
2023/09/04 00:22:13;;;;;;;;;;;;;;;;;;4972078;28;20052;-88
2023/09/04 00:24:39;;;;;;;;;;;;;;;;;;4971868;28;20044;-89
2023/09/04 00:27:05;;;;;;;;;;;;;;;;;;4969562;28;20289;-89
2023/09/04 00:29:31;;;;;;;;;;;;;;;;;;4971094;28;19964;-88
2023/09/04 00:32:05;;;;;;;;;;;;;;;;;;4970139;28;19960;-89
2023/09/04 00:34:31;;;;;;;;;;;;;;;;;;4989881;28;20377;-88
2023/09/04 00:36:57;;;;;;;;;;;;;;;;;;4968467;28;20017;-88
2023/09/04 00:39:23;;;;;;;;;;;;;;;;;;4977520;28;20016;-90
2023/09/04 00:41:49;;;;;;;;;;;;;;;;;;4993807;28;20028;-89
2023/09/04 00:44:15;;;;;;;;;;;;;;;;;;4967587;28;19977;-90
2023/09/04 00:46:41;;;;;;;;;;;;;;;;;;4975991;28;19918;-89
2023/09/04 00:49:07;;;;;;;;;;;;;;;;;;4988867;28;19921;-90
2023/09/04 00:51:36;;;;;;;;;;;;;;;;;;4976303;28;20374;-89
2023/09/04 00:54:03;;;;;;;;;;;;;;;;;;4970933;28;19988;-89
2023/09/04 00:56:28;;;;;;;;;;;;;;;;;;4969646;28;19914;-90
2023/09/04 00:58:54;;;;;;;;;;;;;;;;;;4975724;28;19925;-89
2023/09/04 01:01:20;;;;;;;;;;;;;;;;;;4967206;28;19922;-89
2023/09/04 01:03:46;;;;;;;;;;;;;;;;;;4974181;28;20289;-89
2023/09/04 01:06:12;;;;;;;;;;;;;;;;;;4973428;28;20276;-93
2023/09/04 01:08:38;;;;;;;;;;;;;;;;;;4975052;28;19964;-94
2023/09/04 01:11:04;;;;;;;;;;;;;;;;;;4989860;28;19960;-92
2023/09/04 01:13:30;;;;;;;;;;;;;;;;;;4972869;28;20366;-94
2023/09/04 01:15:56;;;;;;;;;;;;;;;;;;4973151;28;19917;-89
2023/09/04 01:18:22;;;;;;;;;;;;;;;;;;4974290;28;20020;-89
2023/09/04 01:20:48;;;;;;;;;;;;;;;;;;4969844;28;19922;-90
2023/09/04 01:23:13;;;;;;;;;;;;;;;;;;4970978;28;20631;-89
2023/09/04 01:25:39;;;;;;;;;;;;;;;;;;4994670;28;20445;-89
2023/09/04 01:28:05;;;;;;;;;;;;;;;;;;4976547;28;19914;-89
2023/09/04 01:30:33;;;;;;;;;;;;;;;;;;4970578;28;19945;-90
2023/09/04 01:32:59;;;;;;;;;;;;;;;;;;4967450;28;20322;-89
2023/09/04 01:35:25;;;;;;;;;;;;;;;;;;4971829;28;19953;-89
2023/09/04 01:37:51;;;;;;;;;;;;;;;;;;4973555;28;19948;-90
2023/09/04 01:40:18;;;;;;;;;;;;;;;;;;4967588;28;20285;-89
2023/09/04 01:42:43;;;;;;;;;;;;;;;;;;4999419;28;20622;-89
2023/09/04 01:45:10;;;;;;;;;;;;;;;;;;4971941;28;19928;-89
2023/09/04 01:47:36;;;;;;;;;;;;;;;;;;4974164;28;19998;-89
2023/09/04 01:50:01;;;;;;;;;;;;;;;;;;4972795;28;20008;-90
2023/09/04 01:52:27;;;;;;;;;;;;;;;;;;4972332;28;20050;-89
2023/09/04 01:54:53;;;;;;;;;;;;;;;;;;4978030;28;20377;-89
2023/09/04 01:57:19;;;;;;;;;;;;;;;;;;4974230;28;19910;-90
2023/09/04 01:59:45;;;;;;;;;;;;;;;;;;4974504;28;19984;-89
2023/09/04 02:02:11;;;;;;;;;;;;;;;;;;4974694;28;20087;-89
2023/09/04 02:04:37;;;;;;;;;;;;;;;;;;4973481;28;19914;-89
2023/09/04 02:07:03;;;;;;;;;;;;;;;;;;4973326;28;19918;-89
2023/09/04 02:09:29;;;;;;;;;;;;;;;;;;4978451;28;19920;-89
2023/09/04 02:11:58;;;;;;;;;;;;;;;;;;4982209;28;19925;-89
2023/09/04 02:14:24;;;;;;;;;;;;;;;;;;4973505;28;19925;-89
2023/09/04 02:16:50;;;;;;;;;;;;;;;;;;4975658;28;19918;-89
2023/09/04 02:19:16;;;;;;;;;;;;;;;;;;4976997;28;19983;-89
2023/09/04 02:21:42;;;;;;;;;;;;;;;;;;4972848;28;19996;-90
2023/09/04 02:24:07;;;;;;;;;;;;;;;;;;4965741;28;19922;-89
2023/09/04 02:26:33;;;;;;;;;;;;;;;;;;4967884;28;19913;-88
2023/09/04 02:28:59;;;;;;;;;;;;;;;;;;4973355;28;19941;-89
2023/09/04 02:31:25;;;;;;;;;;;;;;;;;;4980759;28;20035;-88
2023/09/04 02:33:52;;;;;;;;;;;;;;;;;;4979319;28;19922;-88
2023/09/04 02:36:18;;;;;;;;;;;;;;;;;;4969667;28;20342;-88
2023/09/04 02:38:43;;;;;;;;;;;;;;;;;;4973334;28;19914;-88
2023/09/04 02:41:09;;;;;;;;;;;;;;;;;;4977544;28;19940;-87
2023/09/04 02:43:35;;;;;;;;;;;;;;;;;;4976155;28;19957;-88
2023/09/04 02:46:01;;;;;;;;;;;;;;;;;;4968332;28;20001;-89
2023/09/04 02:48:27;;;;;;;;;;;;;;;;;;4972327;28;20336;-88
2023/09/04 02:50:53;;;;;;;;;;;;;;;;;;4982972;28;19949;-88
2023/09/04 02:53:19;;;;;;;;;;;;;;;;;;4972161;28;19941;-89
2023/09/04 02:55:45;;;;;;;;;;;;;;;;;;4980430;28;19922;-89
2023/09/04 02:58:11;;;;;;;;;;;;;;;;;;4975340;28;19921;-88
2023/09/04 03:00:38;;;;;;;;;;;;;;;;;;4979396;28;20287;-88
2023/09/04 03:03:04;;;;;;;;;;;;;;;;;;4998321;28;19925;-89
2023/09/04 03:05:30;;;;;;;;;;;;;;;;;;4967542;28;20354;-88
2023/09/04 03:07:56;;;;;;;;;;;;;;;;;;4974732;28;20277;-88
2023/09/04 03:10:21;;;;;;;;;;;;;;;;;;4968670;28;19930;-89
2023/09/04 03:12:47;;;;;;;;;;;;;;;;;;4972462;28;19938;-88
2023/09/04 03:15:13;;;;;;;;;;;;;;;;;;4971112;28;19918;-88
2023/09/04 03:17:39;;;;;;;;;;;;;;;;;;4978201;28;20336;-88
2023/09/04 03:20:09;;;;;;;;;;;;;;;;;;4977794;28;20289;-89
2023/09/04 03:22:35;;;;;;;;;;;;;;;;;;4974346;28;19918;-89
2023/09/04 03:25:01;;;;;;;;;;;;;;;;;;4975442;28;19937;-93
2023/09/04 03:27:27;;;;;;;;;;;;;;;;;;4972011;28;19920;-93
2023/09/04 03:29:53;;;;;;;;;;;;;;;;;;4976111;28;20352;-93
2023/09/04 03:32:19;;;;;;;;;;;;;;;;;;4976670;28;19920;-93
2023/09/04 03:34:44;;;;;;;;;;;;;;;;;;4977370;28;19921;-89
2023/09/04 03:37:10;;;;;;;;;;;;;;;;;;4983102;28;20261;-93
2023/09/04 03:39:37;;;;;;;;;;;;;;;;;;4976800;28;19921;-93
2023/09/04 03:42:03;;;;;;;;;;;;;;;;;;4979675;28;19918;-93
2023/09/04 03:44:31;;;;;;;;;;;;;;;;;;4975336;28;19928;-93
2023/09/04 03:46:57;;;;;;;;;;;;;;;;;;4980005;28;19917;-93
2023/09/04 03:49:23;;;;;;;;;;;;;;;;;;4979045;28;20285;-93
2023/09/04 03:51:49;;;;;;;;;;;;;;;;;;4977630;28;19924;-92
2023/09/04 03:54:15;;;;;;;;;;;;;;;;;;4972322;28;20370;-95
2023/09/04 03:56:40;;;;;;;;;;;;;;;;;;4978043;28;20038;-92
2023/09/04 03:59:06;;;;;;;;;;;;;;;;;;4982361;28;19918;-93
2023/09/04 04:01:33;;;;;;;;;;;;;;;;;;4987350;28;19922;-94
2023/09/04 04:03:59;;;;;;;;;;;;;;;;;;4980381;28;20348;-93
2023/09/04 04:06:25;;;;;;;;;;;;;;;;;;4977868;28;19926;-93
2023/09/04 04:08:51;;;;;;;;;;;;;;;;;;4992906;28;20056;-93
2023/09/04 04:11:20;;;;;;;;;;;;;;;;;;4978255;28;19921;-93
2023/09/04 04:13:46;;;;;;;;;;;;;;;;;;4978527;28;19922;-92
2023/09/04 04:16:12;;;;;;;;;;;;;;;;;;4974901;28;19922;-91
2023/09/04 04:18:38;;;;;;;;;;;;;;;;;;4978523;28;19910;-93
2023/09/04 04:21:04;;;;;;;;;;;;;;;;;;4981191;28;19918;-93
2023/09/04 04:23:30;;;;;;;;;;;;;;;;;;4978123;28;19984;-93
2023/09/04 04:25:56;;;;;;;;;;;;;;;;;;4978634;28;19917;-91
2023/09/04 04:28:22;;;;;;;;;;;;;;;;;;4975724;28;19930;-93
2023/09/04 04:30:48;;;;;;;;;;;;;;;;;;4981203;28;19913;-93
2023/09/04 04:33:14;;;;;;;;;;;;;;;;;;4975347;28;19953;-93
2023/09/04 04:35:40;;;;;;;;;;;;;;;;;;4971717;28;19917;-88
2023/09/04 04:38:06;;;;;;;;;;;;;;;;;;4978680;28;19924;-88
2023/09/04 04:40:32;;;;;;;;;;;;;;;;;;4973990;28;19924;-88
2023/09/04 04:42:58;;;;;;;;;;;;;;;;;;4976999;28;20419;-88
2023/09/04 04:45:24;;;;;;;;;;;;;;;;;;4978033;28;20009;-92
2023/09/04 04:47:50;;;;;;;;;;;;;;;;;;4973832;28;20035;-93
2023/09/04 04:50:16;;;;;;;;;;;;;;;;;;4976680;28;19914;-92
2023/09/04 04:52:42;;;;;;;;;;;;;;;;;;4977850;28;19917;-92
2023/09/04 04:55:09;;;;;;;;;;;;;;;;;;4978004;28;19917;-92
2023/09/04 04:57:35;;;;;;;;;;;;;;;;;;4981310;28;19914;-93
2023/09/04 05:00:06;;;;;;;;;;;;;;;;;;4978170;28;19930;-92
2023/09/04 05:02:32;;;;;;;;;;;;;;;;;;4978900;28;19933;-93
2023/09/04 05:04:57;;;;;;;;;;;;;;;;;;4974049;28;19941;-93
2023/09/04 05:07:24;;;;;;;;;;;;;;;;;;4974288;28;19961;-93
2023/09/04 05:09:50;;;;;;;;;;;;;;;;;;4972232;28;19918;-93
2023/09/04 05:12:16;;;;;;;;;;;;;;;;;;4974471;28;20016;-92
2023/09/04 05:14:42;;;;;;;;;;;;;;;;;;4975194;28;19979;-92
2023/09/04 05:17:08;;;;;;;;;;;;;;;;;;4971649;28;19926;-92
2023/09/04 05:19:33;;;;;;;;;;;;;;;;;;4990658;28;19928;-91
2023/09/04 05:21:59;;;;;;;;;;;;;;;;;;4974132;28;20463;-93
2023/09/04 05:24:25;;;;;;;;;;;;;;;;;;4980671;28;19929;-93
2023/09/04 05:26:51;;;;;;;;;;;;;;;;;;4975824;28;19925;-92
2023/09/04 05:29:17;;;;;;;;;;;;;;;;;;4975810;28;20358;-92
2023/09/04 05:31:43;;;;;;;;;;;;;;;;;;4972578;28;19918;-93
2023/09/04 05:34:09;;;;;;;;;;;;;;;;;;4971962;28;20294;-93
2023/09/04 05:36:35;;;;;;;;;;;;;;;;;;4993406;28;19921;-92
2023/09/04 05:39:01;;;;;;;;;;;;;;;;;;4973202;28;19969;-93
2023/09/04 05:41:27;;;;;;;;;;;;;;;;;;4972341;28;19924;-94
2023/09/04 05:43:52;;;;;;;;;;;;;;;;;;4973312;28;19929;-92
2023/09/04 05:46:18;;;;;;;;;;;;;;;;;;4977533;28;20159;-94
2023/09/04 05:48:44;;;;;;;;;;;;;;;;;;4978200;28;19913;-94
2023/09/04 05:51:10;;;;;;;;;;;;;;;;;;4972419;28;19921;-94
2023/09/04 05:53:36;;;;;;;;;;;;;;;;;;4977898;28;19921;-92
2023/09/04 05:56:02;;;;;;;;;;;;;;;;;;4982098;28;19925;-92
2023/09/04 05:58:28;;;;;;;;;;;;;;;;;;4982016;28;19965;-93
2023/09/04 06:00:55;;;;;;;;;;;;;;;;;;4980107;28;20381;-93
2023/09/04 06:03:20;;;;;;;;;;;;;;;;;;4995462;28;19929;-94
2023/09/04 06:05:46;;;;;;;;;;;;;;;;;;4998192;28;19920;-92
2023/09/04 06:08:12;;;;;;;;;;;;;;;;;;4994684;28;20328;-94
2023/09/04 06:10:38;;;;;;;;;;;;;;;;;;4993733;28;19918;-95
2023/09/04 06:13:04;;;;;;;;;;;;;;;;;;4992978;28;19913;-92
2023/09/04 06:15:30;;;;;;;;;;;;;;;;;;5000909;28;19913;-92
2023/09/04 06:17:56;;;;;;;;;;;;;;;;;;4996424;28;19988;-94
2023/09/04 06:20:22;;;;;;;;;;;;;;;;;;4997274;28;19969;-93
2023/09/04 06:22:48;;;;;;;;;;;;;;;;;;4992054;28;19948;-91
2023/09/04 06:25:41;;;;;;;;;;;;;;;;;;4996511;28;22155;-92
2023/09/04 06:28:07;;;;;;;;;;;;;;;;;;4997330;28;19918;-93
2023/09/04 06:30:33;;;;;;;;;;;;;;;;;;4998554;28;19960;-91
2023/09/04 06:32:59;;;;;;;;;;;;;;;;;;4992213;28;19943;-93
2023/09/04 06:35:25;;;;;;;;;;;;;;;;;;4999560;28;19928;-94
2023/09/04 06:37:51;;;;;;;;;;;;;;;;;;4990125;28;19918;-91
2023/09/04 06:40:17;;;;;;;;;;;;;;;;;;5001559;28;19913;-92
2023/09/04 06:42:43;;;;;;;;;;;;;;;;;;4995386;28;19929;-93
2023/09/04 06:45:09;;;;;;;;;;;;;;;;;;4994920;28;19917;-92
2023/09/04 06:47:35;;;;;;;;;;;;;;;;;;4999206;28;19914;-94
2023/09/04 06:50:01;;;;;;;;;;;;;;;;;;4993826;28;19914;-94
2023/09/04 06:52:27;;;;;;;;;;;;;;;;;;4995802;28;19964;-93
2023/09/04 06:54:53;;;;;;;;;;;;;;;;;;4996027;28;19952;-90
2023/09/04 06:57:19;;;;;;;;;;;;;;;;;;4994709;28;19965;-90
2023/09/04 06:59:45;;;;;;;;;;;;;;;;;;4996661;28;20260;-90
2023/09/04 07:02:11;;;;;;;;;;;;;;;;;;4978701;28;19981;-89
2023/09/04 07:04:55;;;;;;;;;;;;;;;;;;4968568;28;19915;-90
2023/09/04 07:07:21;;;;;;;;;;;;;;;;;;4982663;28;21126;-88
2023/09/04 07:09:47;;;;;;;;;;;;;;;;;;4982705;28;19960;-88
2023/09/04 07:12:13;;;;;;;;;;;;;;;;;;4993377;28;20013;-88
2023/09/04 07:14:39;;;;;;;;;;;;;;;;;;4994148;28;19928;-88
2023/09/04 07:17:06;;;;;;;;;;;;;;;;;;4969320;28;19956;-88
2023/09/04 07:19:32;;;;;;;;;;;;;;;;;;4974847;28;19953;-89
2023/09/04 07:21:58;;;;;;;;;;;;;;;;;;4976591;28;19961;-88
2023/09/04 07:24:24;;;;;;;;;;;;;;;;;;4979320;28;19964;-88
2023/09/04 07:26:50;;;;;;;;;;;;;;;;;;4981705;28;19910;-88
2023/09/04 07:29:16;;;;;;;;;;;;;;;;;;4977028;28;19917;-88
2023/09/04 07:31:41;;;;;;;;;;;;;;;;;;4972641;28;20008;-89
2023/09/04 07:34:07;;;;;;;;;;;;;;;;;;4976110;28;20065;-89
2023/09/04 07:36:33;;;;;;;;;;;;;;;;;;4975787;28;19972;-89
2023/09/04 07:38:59;;;;;;;;;;;;;;;;;;4975657;28;20032;-90
2023/09/04 07:41:25;;;;;;;;;;;;;;;;;;4976465;28;20409;-88
2023/09/04 07:43:52;;;;;;;;;;;;;;;;;;4979413;28;19969;-88
2023/09/04 07:46:17;;;;;;;;;;;;;;;;;;4977508;28;20244;-89
2023/09/04 07:48:44;;;;;;;;;;;;;;;;;;4977640;28;19917;-89
2023/09/04 07:51:10;;;;;;;;;;;;;;;;;;4983321;28;19914;-89
2023/09/04 07:53:36;;;;;;;;;;;;;;;;;;4972652;28;19918;-90
2023/09/04 07:56:01;;;;;;;;;;;;;;;;;;4972646;28;19921;-90
2023/09/04 07:58:27;;;;;;;;;;;;;;;;;;4979659;28;19945;-88
2023/09/04 08:00:53;;;;;;;;;;;;;;;;;;4981697;28;19913;-88
2023/09/04 08:03:19;;;;;;;;;;;;;;;;;;4980139;28;19929;-88
2023/09/04 08:05:45;;;;;;;;;;;;;;;;;;4982527;28;19956;-90
2023/09/04 08:08:11;;;;;;;;;;;;;;;;;;4973928;28;19968;-89
2023/09/04 08:10:40;;;;;;;;;;;;;;;;;;4981088;28;19921;-89
2023/09/04 08:13:07;;;;;;;;;;;;;;;;;;4975163;28;19914;-90
2023/09/04 08:15:33;;;;;;;;;;;;;;;;;;4978748;28;19918;-89
2023/09/04 08:18:02;;;;;;;;;;;;;;;;;;4978300;28;19910;-89
2023/09/04 08:20:28;;;;;;;;;;;;;;;;;;4976818;28;19968;-91
2023/09/04 08:22:54;;;;;;;;;;;;;;;;;;4983914;28;19948;-89
2023/09/04 08:25:20;;;;;;;;;;;;;;;;;;4977612;28;20560;-89
2023/09/04 08:27:45;;;;;;;;;;;;;;;;;;4977150;28;19937;-90
2023/09/04 08:30:11;;;;;;;;;;;;;;;;;;4976201;28;20004;-91
2023/09/04 08:32:37;;;;;;;;;;;;;;;;;;4978264;28;19914;-90
2023/09/04 08:35:04;;;;;;;;;;;;;;;;;;4974316;28;19913;-90
2023/09/04 08:37:30;;;;;;;;;;;;;;;;;;4980998;28;20354;-90
2023/09/04 08:39:56;;;;;;;;;;;;;;;;;;4992901;28;19914;-90
2023/09/04 08:42:21;;;;;;;;;;;;;;;;;;4976195;28;19917;-90
2023/09/04 08:44:47;;;;;;;;;;;;;;;;;;4978458;28;19924;-90
2023/09/04 08:47:13;;;;;;;;;;;;;;;;;;4974903;28;19918;-90
2023/09/04 08:49:39;;;;;;;;;;;;;;;;;;4977037;28;19917;-89
2023/09/04 08:52:08;;;;;;;;;;;;;;;;;;4976964;28;19921;-90
2023/09/04 08:54:37;;;;;;;;;;;;;;;;;;4972876;28;20277;-90
2023/09/04 08:57:03;;;;;;;;;;;;;;;;;;4990020;28;19913;-89
2023/09/04 08:59:29;;;;;;;;;;;;;;;;;;4998816;28;19920;-89
2023/09/04 09:01:56;;;;;;;;;;;;;;;;;;4985845;28;19925;-91
2023/09/04 09:04:22;;;;;;;;;;;;;;;;;;4995328;28;19920;-89
2023/09/04 09:06:48;;;;;;;;;;;;;;;;;;4994635;28;19940;-89
2023/09/04 09:09:14;;;;;;;;;;;;;;;;;;4999324;28;20284;-90
2023/09/04 09:11:40;;;;;;;;;;;;;;;;;;4998071;28;19960;-90
2023/09/04 09:14:06;;;;;;;;;;;;;;;;;;4995554;28;20396;-90
2023/09/04 09:16:32;;;;;;;;;;;;;;;;;;4993107;28;20413;-90
2023/09/04 09:19:03;;;;;;;;;;;;;;;;;;4996491;28;20001;-90
2023/09/04 09:21:29;;;;;;;;;;;;;;;;;;4992469;28;20336;-90
2023/09/04 09:23:59;;;;;;;;;;;;;;;;;;4990238;28;19914;-90
2023/09/04 09:26:25;;;;;;;;;;;;;;;;;;4994439;28;19928;-90
2023/09/04 09:28:51;;;;;;;;;;;;;;;;;;4997453;28;19914;-90
2023/09/04 09:31:17;;;;;;;;;;;;;;;;;;5007433;28;19965;-90
2023/09/04 09:33:43;;;;;;;;;;;;;;;;;;4991350;28;19913;-90
2023/09/04 09:36:09;;;;;;;;;;;;;;;;;;4995348;28;20212;-89
2023/09/04 09:38:35;;;;;;;;;;;;;;;;;;4996685;28;20546;-88
2023/09/04 09:41:01;;;;;;;;;;;;;;;;;;4989578;28;19944;-87
2023/09/04 09:43:27;;;;;;;;;;;;;;;;;;4991713;28;19917;-87
2023/09/04 09:45:53;;;;;;;;;;;;;;;;;;4987183;28;20332;-88
2023/09/04 09:48:20;;;;;;;;;;;;;;;;;;4989662;28;19918;-88
2023/09/04 09:50:49;;;;;;;;;;;;;;;;;;4988346;28;19964;-88
2023/09/04 09:53:15;;;;;;;;;;;;;;;;;;4994592;28;19989;-87
2023/09/04 09:55:41;;;;;;;;;;;;;;;;;;4991440;28;19956;-89
2023/09/04 09:58:07;;;;;;;;;;;;;;;;;;4997018;28;19976;-87
2023/09/04 10:00:33;;;;;;;;;;;;;;;;;;4994164;28;20061;-88
2023/09/04 10:03:02;;;;;;;;;;;;;;;;;;4988129;28;20006;-87
2023/09/04 10:05:28;;;;;;;;;;;;;;;;;;4974676;28;19922;-88
2023/09/04 10:07:54;;;;;;;;;;;;;;;;;;4968287;28;19929;-88
2023/09/04 10:10:20;;;;;;;;;;;;;;;;;;4988241;28;19918;-89
2023/09/04 10:12:46;;;;;;;;;;;;;;;;;;4971357;28;19925;-87
2023/09/04 10:15:12;;;;;;;;;;;;;;;;;;4964450;28;19921;-87
2023/09/04 10:17:47;;;;;;;;;;;;;;;;;;4965160;28;20255;-89
2023/09/04 10:20:14;;;;;;;;;;;;;;;;;;4967964;28;20096;-88
2023/09/04 10:22:40;;;;;;;;;;;;;;;;;;4990981;28;19984;-87
2023/09/04 10:25:07;;;;;;;;;;;;;;;;;;4968715;28;20683;-91
2023/09/04 10:27:34;;;;;;;;;;;;;;;;;;4969407;28;19914;-92
2023/09/04 10:30:00;;;;;;;;;;;;;;;;;;4976202;28;19913;-91
2023/09/04 10:32:25;;;;;;;;;;;;;;;;;;4979553;28;20196;-93
2023/09/04 10:34:51;;;;;;;;;;;;;;;;;;4984742;28;20366;-88
2023/09/04 10:37:18;;;;;;;;;;;;;;;;;;4971458;28;19914;-89
2023/09/04 10:39:44;;;;;;;;;;;;;;;;;;4973555;28;19921;-90
2023/09/04 10:42:09;;;;;;;;;;;;;;;;;;4974424;28;19921;-89
2023/09/04 10:44:35;;;;;;;;;;;;;;;;;;4979440;28;19970;-89
2023/09/04 10:47:01;;;;;;;;;;;;;;;;;;4971976;28;19921;-90
2023/09/04 10:49:27;;;;;;;;;;;;;;;;;;4969975;28;19914;-89
2023/09/04 10:51:53;;;;;;;;;;;;;;;;;;4971445;28;20199;-89
2023/09/04 10:54:22;;;;;;;;;;;;;;;;;;4977185;28;20309;-89
2023/09/04 10:56:48;;;;;;;;;;;;;;;;;;4974285;28;19969;-89
2023/09/04 10:59:14;;;;;;;;;;;;;;;;;;4963988;28;19918;-89
2023/09/04 11:01:40;;;;;;;;;;;;;;;;;;4971469;28;20332;-90
2023/09/04 11:04:09;;;;;;;;;;;;;;;;;;4983649;28;19922;-89
2023/09/04 11:06:35;;;;;;;;;;;;;;;;;;4970406;28;19930;-91
2023/09/04 11:09:02;;;;;;;;;;;;;;;;;;4974006;28;19924;-90
2023/09/04 11:11:28;;;;;;;;;;;;;;;;;;4971806;28;19973;-90
2023/09/04 11:13:54;;;;;;;;;;;;;;;;;;4972547;28;19949;-90
2023/09/04 11:16:20;;;;;;;;;;;;;;;;;;4966875;28;20004;-89
2023/09/04 11:18:46;;;;;;;;;;;;;;;;;;4970122;28;20048;-91
2023/09/04 11:21:18;;;;;;;;;;;;;;;;;;4975170;28;19919;-90
2023/09/04 11:23:44;;;;;;;;;;;;;;;;;;4971160;28;20301;-89
2023/09/04 11:26:10;;;;;;;;;;;;;;;;;;4967066;28;19921;-91
2023/09/04 11:28:36;;;;;;;;;;;;;;;;;;4983926;28;19918;-90
2023/09/04 11:31:02;;;;;;;;;;;;;;;;;;4972114;28;19920;-90
2023/09/04 11:33:31;;;;;;;;;;;;;;;;;;4969146;28;19914;-90
2023/09/04 11:35:58;;;;;;;;;;;;;;;;;;4972307;28;19977;-94
2023/09/04 11:38:25;;;;;;;;;;;;;;;;;;4974845;28;19957;-92
2023/09/04 11:40:50;;;;;;;;;;;;;;;;;;4978027;28;19970;-93
2023/09/04 11:43:26;;;;;;;;;;;;;;;;;;4975336;28;19929;-92
2023/09/04 11:45:55;;;;;;;;;;;;;;;;;;4975828;28;19913;-90
2023/09/04 11:48:21;;;;;;;;;;;;;;;;;;4973940;28;19924;-90
2023/09/04 11:50:47;;;;;;;;;;;;;;;;;;4978985;28;20000;-89
2023/09/04 11:53:13;;;;;;;;;;;;;;;;;;4977454;28;19918;-90
2023/09/04 11:55:39;;;;;;;;;;;;;;;;;;4978637;28;19964;-90
2023/09/04 11:58:05;;;;;;;;;;;;;;;;;;4974237;28;19974;-91
2023/09/04 12:00:31;;;;;;;;;;;;;;;;;;4977958;28;19914;-90
2023/09/04 12:02:57;;;;;;;;;;;;;;;;;;4981603;28;20289;-89
2023/09/04 12:05:23;;;;;;;;;;;;;;;;;;4972303;28;19930;-89
2023/09/04 12:07:49;;;;;;;;;;;;;;;;;;4974962;28;19942;-90
2023/09/04 12:10:15;;;;;;;;;;;;;;;;;;4988907;28;20370;-89
2023/09/04 12:12:41;;;;;;;;;;;;;;;;;;4980778;28;19910;-90
2023/09/04 12:15:16;;;;;;;;;;;;;;;;;;4973339;28;19925;-89
2023/09/04 12:17:42;;;;;;;;;;;;;;;;;;4994870;28;19921;-90
2023/09/04 12:20:08;;;;;;;;;;;;;;;;;;4977561;28;19922;-90
2023/09/04 12:22:34;;;;;;;;;;;;;;;;;;4976067;28;19921;-89
2023/09/04 12:25:07;;;;;;;;;;;;;;;;;;4977432;28;20274;-89
2023/09/04 12:27:45;;;;;;;;;;;;;;;;;;4996785;28;19925;-89
2023/09/04 12:30:11;;;;;;;;;;;;;;;;;;4974101;28;19924;-90
2023/09/04 12:32:37;;;;;;;;;;;;;;;;;;4977951;28;20381;-90
2023/09/04 12:35:04;;;;;;;;;;;;;;;;;;4977869;28;19917;-90
2023/09/04 12:37:31;;;;;;;;;;;;;;;;;;4979014;28;20344;-89
2023/09/04 12:39:57;;;;;;;;;;;;;;;;;;4975231;28;20273;-90
2023/09/04 12:42:22;;;;;;;;;;;;;;;;;;4975727;28;19926;-89
2023/09/04 12:44:48;;;;;;;;;;;;;;;;;;4978837;28;19910;-89
2023/09/04 12:47:14;;;;;;;;;;;;;;;;;;4977214;28;20066;-89
2023/09/04 12:49:43;;;;;;;;;;;;;;;;;;4976334;28;19926;-87
2023/09/04 12:52:09;;;;;;;;;;;;;;;;;;4986475;28;19918;-88
2023/09/04 12:54:35;;;;;;;;;;;;;;;;;;4973251;28;19964;-88
2023/09/04 12:57:01;;;;;;;;;;;;;;;;;;4974936;28;19949;-89
2023/09/04 12:59:27;;;;;;;;;;;;;;;;;;4976085;28;19984;-89
2023/09/04 13:01:53;;;;;;;;;;;;;;;;;;4965247;28;20024;-89
2023/09/04 13:04:20;;;;;;;;;;;;;;;;;;4970095;28;19933;-88
2023/09/04 13:06:46;;;;;;;;;;;;;;;;;;4976641;28;19997;-90
2023/09/04 13:09:12;;;;;;;;;;;;;;;;;;4978533;28;19956;-90
2023/09/04 13:11:38;;;;;;;;;;;;;;;;;;4990447;28;19914;-90
2023/09/04 13:14:03;;;;;;;;;;;;;;;;;;4976006;28;19922;-90
2023/09/04 13:16:29;;;;;;;;;;;;;;;;;;4982462;28;19921;-90
2023/09/04 13:18:56;;;;;;;;;;;;;;;;;;4971044;28;19929;-89
2023/09/04 13:21:22;;;;;;;;;;;;;;;;;;4978695;28;19913;-89
2023/09/04 13:23:48;;;;;;;;;;;;;;;;;;4974439;28;19922;-90
2023/09/04 13:26:14;;;;;;;;;;;;;;;;;;4978210;28;19917;-91
2023/09/04 13:28:40;;;;;;;;;;;;;;;;;;4978657;28;19917;-90
2023/09/04 13:31:06;;;;;;;;;;;;;;;;;;4976432;28;20390;-90
2023/09/04 13:33:33;;;;;;;;;;;;;;;;;;4972986;28;19996;-90
2023/09/04 13:35:59;;;;;;;;;;;;;;;;;;4973015;28;19913;-90
2023/09/04 13:38:25;;;;;;;;;;;;;;;;;;4972379;28;19924;-90
2023/09/04 13:40:51;;;;;;;;;;;;;;;;;;4981086;28;20124;-90
2023/09/04 13:43:17;;;;;;;;;;;;;;;;;;4975099;28;20396;-89
2023/09/04 13:45:43;;;;;;;;;;;;;;;;;;4970357;28;19922;-90
2023/09/04 13:48:09;;;;;;;;;;;;;;;;;;4970799;28;19921;-90
2023/09/04 13:50:35;;;;;;;;;;;;;;;;;;4973372;28;19922;-89
2023/09/04 13:53:01;;;;;;;;;;;;;;;;;;4972260;28;19981;-91
2023/09/04 13:55:27;;;;;;;;;;;;;;;;;;4974399;28;20288;-89
2023/09/04 13:57:53;;;;;;;;;;;;;;;;;;4973131;28;19928;-88
2023/09/04 14:00:21;;;;;;;;;;;;;;;;;;4970553;28;19920;-89
2023/09/04 14:02:48;;;;;;;;;;;;;;;;;;4975807;28;20436;-88
2023/09/04 14:05:15;;;;;;;;;;;;;;;;;;4973521;28;19926;-90
2023/09/04 14:07:44;;;;;;;;;;;;;;;;;;4974063;28;19926;-90
2023/09/04 14:10:10;;;;;;;;;;;;;;;;;;4972036;28;19953;-90
2023/09/04 14:12:39;;;;;;;;;;;;;;;;;;4974834;28;20011;-90
2023/09/04 14:15:05;;;;;;;;;;;;;;;;;;4975349;28;20425;-90
2023/09/04 14:17:31;;;;;;;;;;;;;;;;;;4979749;28;19936;-87
2023/09/04 14:19:57;;;;;;;;;;;;;;;;;;4986773;28;19922;-87
2023/09/04 14:22:23;;;;;;;;;;;;;;;;;;4972159;28;19932;-87
2023/09/04 14:24:52;;;;;;;;;;;;;;;;;;4979546;28;19968;-87
2023/09/04 14:27:18;;;;;;;;;;;;;;;;;;4974099;28;20332;-87
2023/09/04 14:29:44;;;;;;;;;;;;;;;;;;4993100;28;19922;-87
2023/09/04 14:32:09;;;;;;;;;;;;;;;;;;4979145;28;19922;-88
2023/09/04 14:34:36;;;;;;;;;;;;;;;;;;4980337;28;19921;-87
2023/09/04 14:37:02;;;;;;;;;;;;;;;;;;4973076;28;19973;-88
2023/09/04 14:39:28;;;;;;;;;;;;;;;;;;4975733;28;19938;-87
2023/09/04 14:41:54;;;;;;;;;;;;;;;;;;4974868;28;19926;-88
2023/09/04 14:44:20;;;;;;;;;;;;;;;;;;4971183;28;20340;-87
2023/09/04 14:46:46;;;;;;;;;;;;;;;;;;4969632;28;19969;-88
2023/09/04 14:49:12;;;;;;;;;;;;;;;;;;4971194;28;19921;-87
2023/09/04 14:51:38;;;;;;;;;;;;;;;;;;4968637;28;20289;-87
2023/09/04 14:54:03;;;;;;;;;;;;;;;;;;4971084;28;20382;-87
2023/09/04 14:56:29;;;;;;;;;;;;;;;;;;4975543;28;19945;-88
2023/09/04 14:59:04;;;;;;;;;;;;;;;;;;4977329;28;19917;-87
2023/09/04 15:01:33;;;;;;;;;;;;;;;;;;4987175;28;20128;-88
2023/09/04 15:04:00;;;;;;;;;;;;;;;;;;4991033;28;19928;-87
2023/09/04 15:06:26;;;;;;;;;;;;;;;;;;4969824;28;19930;-89
2023/09/04 15:08:52;;;;;;;;;;;;;;;;;;4975486;28;20006;-91
2023/09/04 15:11:22;;;;;;;;;;;;;;;;;;4974158;28;19925;-91
2023/09/04 15:13:48;;;;;;;;;;;;;;;;;;4973713;28;19969;-91
2023/09/04 15:16:14;;;;;;;;;;;;;;;;;;4973908;28;19918;-89
2023/09/04 15:18:41;;;;;;;;;;;;;;;;;;4975334;28;19941;-89
2023/09/04 15:21:08;;;;;;;;;;;;;;;;;;4977139;28;19914;-89
2023/09/04 15:23:33;;;;;;;;;;;;;;;;;;4973335;28;19922;-89
2023/09/04 15:25:59;;;;;;;;;;;;;;;;;;4974165;28;20017;-88
2023/09/04 15:28:25;;;;;;;;;;;;;;;;;;4978562;28;20016;-89
2023/09/04 15:30:51;;;;;;;;;;;;;;;;;;4968406;28;19922;-89
2023/09/04 15:33:17;;;;;;;;;;;;;;;;;;4973103;28;19991;-89
2023/09/04 15:35:46;;;;;;;;;;;;;;;;;;4975921;28;19965;-89
2023/09/04 15:38:12;;;;;;;;;;;;;;;;;;4978875;28;20086;-89
2023/09/04 15:40:38;;;;;;;;;;;;;;;;;;4975342;28;19921;-89
2023/09/04 15:43:04;;;;;;;;;;;;;;;;;;4982384;28;19926;-90
2023/09/04 15:45:30;;;;;;;;;;;;;;;;;;4979068;28;19921;-89
2023/09/04 15:47:56;;;;;;;;;;;;;;;;;;4984484;28;19961;-89
2023/09/04 15:50:23;;;;;;;;;;;;;;;;;;4974285;28;20620;-90
2023/09/04 15:52:48;;;;;;;;;;;;;;;;;;4983385;28;20057;-90
2023/09/04 15:55:14;;;;;;;;;;;;;;;;;;4977324;28;20057;-89
2023/09/04 15:57:40;;;;;;;;;;;;;;;;;;4974511;28;19914;-89
2023/09/04 16:00:06;;;;;;;;;;;;;;;;;;4991471;28;19960;-89
2023/09/04 16:02:35;;;;;;;;;;;;;;;;;;4981543;28;19913;-89
2023/09/04 16:05:02;;;;;;;;;;;;;;;;;;5002209;28;19929;-89
2023/09/04 16:07:27;;;;;;;;;;;;;;;;;;4991225;28;19984;-90
2023/09/04 16:09:53;;;;;;;;;;;;;;;;;;5013235;28;20029;-90
2023/09/04 16:12:19;;;;;;;;;;;;;;;;;;4993561;28;19924;-88
2023/09/04 16:14:45;;;;;;;;;;;;;;;;;;4996180;28;20431;-88
2023/09/04 16:17:12;;;;;;;;;;;;;;;;;;4998291;28;19917;-91
2023/09/04 16:19:39;;;;;;;;;;;;;;;;;;4995469;28;19914;-93
2023/09/04 16:22:05;;;;;;;;;;;;;;;;;;4998321;28;20620;-94
2023/09/04 16:24:32;;;;;;;;;;;;;;;;;;5005965;28;19914;-93
2023/09/04 16:26:58;;;;;;;;;;;;;;;;;;4995019;28;19921;-87
2023/09/04 16:29:24;;;;;;;;;;;;;;;;;;4984032;28;19942;-88
2023/09/04 16:31:49;;;;;;;;;;;;;;;;;;4987163;28;20063;-90
2023/09/04 16:34:15;;;;;;;;;;;;;;;;;;4991290;28;19925;-89
2023/09/04 16:36:41;;;;;;;;;;;;;;;;;;4971604;28;19929;-89
2023/09/04 16:39:11;;;;;;;;;;;;;;;;;;4987952;28;20426;-88